Time;durP1;ratioP1;P1;durP2;ratioP2;P2;SDS_P1;SDS_P2;PMS_P1;PMS_P2;Temp;Humidity;BMP_temperature;BMP_pressure;BME280_temperature;BME280_humidity;BME280_pressure;Samples;Min_cycle;Max_cycle;Signal;HPM_P1;HPM_P2
2023/09/01 00:00:07;;;;;;;15.55;6.00;;;20.80;94.10;;;;;;5033779;28;20464;-68
2023/09/01 00:03:11;;;;;;;13.20;6.22;;;20.90;94.10;;;;;;5033772;28;20397;-68
2023/09/01 00:06:16;;;;;;;12.52;6.53;;;20.90;94.00;;;;;;5033783;28;20429;-68
2023/09/01 00:09:20;;;;;;;15.32;6.20;;;20.90;94.20;;;;;;5033756;28;20040;-68
2023/09/01 00:12:24;;;;;;;10.85;5.93;;;20.80;94.20;;;;;;5033793;28;20053;-68
2023/09/01 00:15:28;;;;;;;16.30;6.20;;;20.80;94.20;;;;;;5033604;28;20056;-68
2023/09/01 00:18:32;;;;;;;17.67;6.10;;;20.80;94.00;;;;;;5033487;28;20045;-68
2023/09/01 00:21:36;;;;;;;15.57;5.60;;;20.80;93.90;;;;;;5033348;28;20041;-68
2023/09/01 00:24:40;;;;;;;15.23;5.78;;;20.80;94.00;;;;;;5033416;28;20044;-67
2023/09/01 00:27:44;;;;;;;9.18;5.28;;;20.70;94.10;;;;;;5033394;28;20049;-68
2023/09/01 00:30:52;;;;;;;12.13;6.00;;;20.70;94.20;;;;;;5032435;28;20038;-67
2023/09/01 00:33:56;;;;;;;10.32;5.57;;;20.70;94.10;;;;;;5032641;28;20148;-68
2023/09/01 00:37:00;;;;;;;12.55;4.85;;;20.60;94.30;;;;;;5032164;28;20187;-68
2023/09/01 00:40:05;;;;;;;12.82;6.10;;;20.40;94.70;;;;;;5032982;28;20052;-68
2023/09/01 00:43:08;;;;;;;11.85;6.07;;;20.40;94.70;;;;;;5020779;28;20048;-68
2023/09/01 00:46:12;;;;;;;9.82;5.47;;;20.30;94.90;;;;;;5032764;28;20049;-67
2023/09/01 00:49:18;;;;;;;19.13;5.90;;;20.20;95.10;;;;;;5033061;28;20048;-68
2023/09/01 00:52:23;;;;;;;14.75;6.40;;;20.20;95.00;;;;;;5032351;28;20044;-68
2023/09/01 00:55:27;;;;;;;11.52;5.93;;;20.20;95.40;;;;;;5032181;28;20060;-68
2023/09/01 00:58:32;;;;;;;9.55;5.95;;;20.00;95.50;;;;;;5032734;28;20048;-68
2023/09/01 01:01:36;;;;;;;14.07;6.05;;;19.90;96.00;;;;;;5031970;28;20058;-68
2023/09/01 01:04:40;;;;;;;11.95;6.10;;;19.90;95.70;;;;;;5032476;28;20048;-68
2023/09/01 01:08:06;;;;;;;16.92;7.38;;;19.60;96.10;;;;;;5032596;28;20496;-68
2023/09/01 01:11:36;;;;;;;12.68;6.93;;;19.70;96.70;;;;;;5032601;28;20044;-68
2023/09/01 01:14:51;;;;;;;14.80;7.40;;;19.60;96.60;;;;;;5032297;28;20056;-67
2023/09/01 01:17:56;;;;;;;13.20;7.10;;;19.60;96.80;;;;;;5032259;28;20500;-68
2023/09/01 01:21:08;;;;;;;15.15;6.70;;;19.50;96.80;;;;;;5031576;28;20044;-67
2023/09/01 01:24:13;;;;;;;11.35;6.05;;;19.60;97.20;;;;;;5032337;28;20045;-68
2023/09/01 01:27:18;;;;;;;15.23;6.20;;;19.80;96.90;;;;;;5032241;28;20052;-68
2023/09/01 01:30:22;;;;;;;12.65;6.60;;;19.90;96.30;;;;;;5031985;28;20105;-67
2023/09/01 01:33:50;;;;;;;14.23;6.53;;;20.00;96.10;;;;;;5031750;28;20413;-68
2023/09/01 01:37:20;;;;;;;13.50;6.68;;;19.80;96.00;;;;;;5032061;28;20052;-68
2023/09/01 01:40:28;;;;;;;12.70;6.32;;;19.90;96.00;;;;;;5030957;28;20045;-68
2023/09/01 01:43:33;;;;;;;16.08;7.35;;;20.00;96.10;;;;;;5030701;28;20048;-68
2023/09/01 01:46:38;;;;;;;11.45;6.13;;;20.00;95.90;;;;;;5030719;28;20044;-68
2023/09/01 01:49:42;;;;;;;14.00;6.35;;;19.90;96.10;;;;;;5031875;28;20057;-67
2023/09/01 01:52:46;;;;;;;12.32;5.97;;;20.00;96.00;;;;;;5030987;28;20053;-67
2023/09/01 01:55:53;;;;;;;16.73;6.10;;;20.00;96.10;;;;;;5031709;28;20052;-67
2023/09/01 01:58:57;;;;;;;18.23;6.32;;;20.00;95.90;;;;;;5030505;28;20063;-67
2023/09/01 02:02:01;;;;;;;11.90;5.85;;;20.00;95.80;;;;;;5030415;28;20049;-67
2023/09/01 02:05:06;;;;;;;11.07;5.60;;;20.00;95.70;;;;;;5030657;28;20504;-67
2023/09/01 02:08:11;;;;;;;10.35;5.35;;;19.90;95.80;;;;;;5030689;28;20052;-67
2023/09/01 02:11:15;;;;;;;12.75;6.28;;;19.90;96.00;;;;;;5030439;28;20040;-68
2023/09/01 02:14:19;;;;;;;12.48;6.70;;;19.80;95.70;;;;;;5030355;28;20047;-67
2023/09/01 02:17:23;;;;;;;11.48;5.63;;;19.90;96.00;;;;;;5031270;28;20044;-68
2023/09/01 02:20:29;;;;;;;16.63;6.00;;;19.80;95.70;;;;;;5031262;28;20545;-67
2023/09/01 02:23:34;;;;;;;13.45;6.50;;;19.90;96.00;;;;;;5031933;28;20044;-67
2023/09/01 02:26:37;;;;;;;14.88;6.47;;;19.80;96.00;;;;;;5031202;28;20064;-68
2023/09/01 02:29:41;;;;;;;14.82;6.43;;;19.70;96.70;;;;;;5031284;28;20052;-68
2023/09/01 02:32:45;;;;;;;15.40;6.53;;;19.60;96.40;;;;;;5030963;28;20136;-68
2023/09/01 02:35:49;;;;;;;14.63;6.78;;;19.50;96.60;;;;;;5031078;28;20405;-68
2023/09/01 02:38:54;;;;;;;15.85;6.53;;;19.50;97.00;;;;;;5031133;28;20393;-68
2023/09/01 02:42:00;;;;;;;11.48;6.80;;;19.50;96.60;;;;;;5030897;28;20048;-68
2023/09/01 02:45:04;;;;;;;19.55;6.45;;;19.50;96.80;;;;;;5030823;28;20044;-68
2023/09/01 02:48:08;;;;;;;19.33;6.90;;;19.30;96.90;;;;;;5030830;28;20393;-68
2023/09/01 02:51:12;;;;;;;13.63;6.35;;;19.60;97.20;;;;;;5029972;28;20052;-68
2023/09/01 02:54:16;;;;;;;11.73;6.68;;;19.40;97.20;;;;;;5031985;28;20044;-68
2023/09/01 02:57:19;;;;;;;12.70;6.90;;;19.30;97.20;;;;;;5034930;28;20511;-67
2023/09/01 03:00:25;;;;;;;14.55;6.70;;;19.40;97.10;;;;;;5034052;28;20052;-68
2023/09/01 03:03:29;;;;;;;10.07;6.60;;;19.40;96.50;;;;;;5033675;28;20048;-68
2023/09/01 03:06:34;;;;;;;11.60;6.68;;;19.30;97.00;;;;;;5033577;28;20048;-68
2023/09/01 03:09:38;;;;;;;15.43;7.20;;;19.30;97.10;;;;;;5034738;28;20049;-68
2023/09/01 03:12:42;;;;;;;12.38;6.85;;;19.40;96.70;;;;;;5033618;28;20044;-68
2023/09/01 03:15:49;;;;;;;13.20;6.25;;;19.40;96.70;;;;;;5033831;28;20049;-67
2023/09/01 03:18:59;;;;;;;11.77;6.38;;;19.50;96.80;;;;;;5034684;28;20536;-67
2023/09/01 03:22:06;;;;;;;12.73;6.40;;;19.60;96.10;;;;;;5033610;28;20037;-67
2023/09/01 03:25:11;;;;;;;14.68;6.47;;;19.50;96.30;;;;;;5033366;28;20064;-67
2023/09/01 03:28:16;;;;;;;14.27;7.03;;;19.20;96.40;;;;;;5033663;28;20377;-67
2023/09/01 03:31:21;;;;;;;13.13;6.43;;;19.30;96.60;;;;;;5033695;28;20041;-67
2023/09/01 03:34:25;;;;;;;12.85;6.95;;;19.30;97.10;;;;;;5034225;28;20056;-67
2023/09/01 03:37:29;;;;;;;12.10;6.95;;;19.10;97.00;;;;;;5033570;28;20044;-67
2023/09/01 03:40:36;;;;;;;19.15;7.07;;;19.10;97.30;;;;;;5056335;28;20046;-67
2023/09/01 03:43:40;;;;;;;16.95;7.55;;;19.00;97.00;;;;;;5033125;28;20116;-67
2023/09/01 03:46:44;;;;;;;16.02;7.35;;;19.00;97.20;;;;;;5033857;28;20405;-67
2023/09/01 03:49:48;;;;;;;13.65;6.60;;;19.00;97.20;;;;;;5033296;28;20050;-67
2023/09/01 03:52:52;;;;;;;12.02;6.20;;;18.90;97.60;;;;;;5033165;28;20040;-67
2023/09/01 03:55:56;;;;;;;10.57;6.15;;;18.60;97.70;;;;;;5033236;28;20061;-67
2023/09/01 03:59:01;;;;;;;15.25;6.32;;;18.60;97.80;;;;;;5033685;28;20036;-67
2023/09/01 04:02:05;;;;;;;15.30;6.75;;;18.70;98.20;;;;;;5033755;28;20052;-67
2023/09/01 04:05:09;;;;;;;10.80;5.55;;;18.40;97.70;;;;;;5032567;28;20421;-67
2023/09/01 04:08:13;;;;;;;16.70;6.60;;;19.00;97.60;;;;;;5032657;28;20390;-67
2023/09/01 04:11:17;;;;;;;13.15;6.68;;;19.00;96.90;;;;;;5032884;28;20044;-67
2023/09/01 04:14:21;;;;;;;11.55;6.00;;;19.00;97.30;;;;;;5032674;28;20116;-67
2023/09/01 04:17:25;;;;;;;11.65;6.32;;;19.50;97.30;;;;;;5032686;28;20056;-67
2023/09/01 04:20:28;;;;;;;18.35;7.90;;;19.00;97.20;;;;;;5032392;28;20044;-67
2023/09/01 04:23:33;;;;;;;14.77;7.57;;;19.10;97.00;;;;;;5033479;28;20052;-67
2023/09/01 04:26:38;;;;;;;12.60;7.07;;;19.20;97.10;;;;;;5032417;28;20040;-67
2023/09/01 04:29:42;;;;;;;15.32;7.38;;;19.10;96.60;;;;;;5032165;28;20053;-67
2023/09/01 04:32:46;;;;;;;15.60;7.13;;;19.20;96.80;;;;;;5031963;28;20052;-67
2023/09/01 04:36:11;;;;;;;18.42;7.70;;;19.20;96.70;;;;;;5032030;28;20512;-67
2023/09/01 04:39:16;;;;;;;20.85;8.07;;;19.10;96.90;;;;;;5032936;28;20041;-67
2023/09/01 04:42:23;;;;;;;17.42;7.28;;;19.00;96.90;;;;;;5032102;28;20397;-67
2023/09/01 04:45:27;;;;;;;16.50;8.45;;;19.00;96.60;;;;;;5032716;28;20037;-67
2023/09/01 04:48:32;;;;;;;22.80;8.98;;;17.00;96.40;;;;;;5031790;28;20051;-67
2023/09/01 04:51:36;;;;;;;15.65;8.05;;;18.80;97.20;;;;;;5032542;28;20056;-67
2023/09/01 04:54:40;;;;;;;15.32;7.00;;;19.20;97.30;;;;;;5031776;28;20560;-67
2023/09/01 04:57:43;;;;;;;17.75;6.35;;;19.10;97.10;;;;;;5032673;28;20044;-67
2023/09/01 05:00:49;;;;;;;14.35;6.35;;;20.10;96.80;;;;;;5032654;28;20496;-66
2023/09/01 05:03:53;;;;;;;15.63;6.35;;;19.40;96.70;;;;;;5031859;28;20044;-67
2023/09/01 05:06:58;;;;;;;15.45;6.70;;;19.50;96.20;;;;;;5031508;28;20037;-67
2023/09/01 05:10:02;;;;;;;17.48;5.85;;;19.40;96.30;;;;;;5032611;28;20048;-66
2023/09/01 05:13:06;;;;;;;19.40;5.90;;;19.30;96.40;;;;;;5031771;28;20593;-67
2023/09/01 05:16:11;;;;;;;15.32;6.25;;;19.50;96.50;;;;;;5031118;28;20052;-67
2023/09/01 05:19:15;;;;;;;14.07;5.47;;;19.70;96.40;;;;;;5031611;28;20036;-67
2023/09/01 05:22:19;;;;;;;21.48;6.25;;;20.10;95.90;;;;;;5031323;28;20041;-67
2023/09/01 05:25:23;;;;;;;16.77;5.80;;;20.50;95.30;;;;;;5031504;28;20052;-67
2023/09/01 05:28:26;;;;;;;13.18;5.95;;;20.90;94.50;;;;;;5032025;28;20040;-66
2023/09/01 05:31:30;;;;;;;10.75;4.90;;;21.10;94.00;;;;;;5031157;28;20040;-67
2023/09/01 05:34:38;;;;;;;16.63;5.38;;;21.50;93.70;;;;;;5030831;28;20060;-64
2023/09/01 05:37:43;;;;;;;16.63;5.53;;;22.30;92.40;;;;;;5030958;28;20052;-64
2023/09/01 05:40:58;;;;;;;16.05;5.75;;;22.40;92.60;;;;;;5030957;28;20048;-65
2023/09/01 05:44:02;;;;;;;11.13;5.30;;;23.40;90.90;;;;;;5031873;28;20099;-64
2023/09/01 05:47:06;;;;;;;15.70;5.10;;;24.30;89.10;;;;;;5030506;28;20048;-65
2023/09/01 05:50:10;;;;;;;10.23;5.10;;;24.90;86.70;;;;;;5031787;28;20500;-65
2023/09/01 05:53:14;;;;;;;15.18;5.50;;;25.20;85.50;;;;;;5030486;28;20052;-64
2023/09/01 05:56:18;;;;;;;14.75;5.35;;;24.30;85.20;;;;;;5031170;28;20048;-65
2023/09/01 05:59:22;;;;;;;9.30;5.40;;;25.10;85.60;;;;;;5031381;28;20381;-65
2023/09/01 06:02:26;;;;;;;12.63;6.28;;;24.80;85.60;;;;;;5031338;28;20044;-65
2023/09/01 06:05:30;;;;;;;13.90;5.53;;;24.40;87.10;;;;;;5031340;28;20041;-65
2023/09/01 06:08:34;;;;;;;9.63;5.82;;;24.10;88.30;;;;;;5031387;28;20048;-65
2023/09/01 06:11:39;;;;;;;12.20;5.60;;;24.20;89.00;;;;;;5030962;28;20037;-65
2023/09/01 06:14:43;;;;;;;16.42;5.85;;;24.40;88.30;;;;;;5029971;28;20048;-65
2023/09/01 06:17:47;;;;;;;13.23;5.40;;;24.30;88.70;;;;;;5030811;28;20060;-66
2023/09/01 06:20:51;;;;;;;14.52;5.13;;;24.30;88.40;;;;;;5030914;28;20095;-67
2023/09/01 06:23:55;;;;;;;12.93;6.05;;;24.40;87.80;;;;;;5030707;28;20041;-66
2023/09/01 06:26:58;;;;;;;8.95;4.38;;;24.60;87.00;;;;;;5030816;28;20087;-66
2023/09/01 06:30:06;;;;;;;13.73;5.05;;;24.80;86.50;;;;;;5030774;28;20041;-66
2023/09/01 06:33:10;;;;;;;16.60;5.18;;;25.10;86.30;;;;;;5030493;28;20097;-66
2023/09/01 06:36:14;;;;;;;13.90;5.28;;;25.10;86.10;;;;;;5030613;28;20556;-66
2023/09/01 06:39:18;;;;;;;18.17;5.63;;;25.10;85.90;;;;;;5030586;28;20044;-67
2023/09/01 06:42:22;;;;;;;17.63;5.35;;;25.20;86.10;;;;;;5030359;28;20540;-66
2023/09/01 06:45:26;;;;;;;12.02;4.53;;;25.50;85.30;;;;;;5030863;28;20036;-66
2023/09/01 06:48:31;;;;;;;13.65;4.47;;;25.80;84.20;;;;;;5030557;28;20384;-67
2023/09/01 06:51:35;;;;;;;24.30;6.15;;;26.00;84.40;;;;;;5030747;28;20048;-67
2023/09/01 06:54:39;;;;;;;13.73;4.47;;;26.30;84.10;;;;;;5030517;28;20061;-66
2023/09/01 06:57:43;;;;;;;18.00;5.15;;;26.40;82.40;;;;;;5030867;28;20049;-66
2023/09/01 07:00:51;;;;;;;14.73;5.22;;;26.50;81.90;;;;;;5030589;28;20053;-67
2023/09/01 07:03:55;;;;;;;13.43;4.85;;;26.70;82.10;;;;;;5030689;28;20053;-67
2023/09/01 07:06:59;;;;;;;13.00;4.75;;;26.50;81.30;;;;;;5030159;28;20044;-67
2023/09/01 07:10:03;;;;;;;19.00;5.05;;;26.30;81.90;;;;;;5030378;28;20064;-66
2023/09/01 07:13:10;;;;;;;17.90;6.15;;;26.50;82.50;;;;;;5030428;28;20056;-67
2023/09/01 07:16:15;;;;;;;18.88;4.93;;;26.60;82.10;;;;;;5030497;28;20044;-67
2023/09/01 07:19:19;;;;;;;16.25;5.50;;;26.30;82.50;;;;;;5030275;28;20048;-66
2023/09/01 07:22:23;;;;;;;15.18;4.30;;;26.40;82.90;;;;;;5041104;28;20040;-66
2023/09/01 07:25:27;;;;;;;12.07;4.90;;;26.60;81.50;;;;;;5030167;28;20411;-66
2023/09/01 07:28:30;;;;;;;13.15;4.50;;;26.80;81.40;;;;;;5030671;28;20049;-66
2023/09/01 07:31:34;;;;;;;17.77;5.05;;;26.90;81.10;;;;;;5030942;28;20048;-65
2023/09/01 07:34:38;;;;;;;10.75;4.10;;;27.10;80.90;;;;;;5030503;28;20500;-67
2023/09/01 07:37:43;;;;;;;11.77;4.85;;;27.30;80.10;;;;;;5030451;28;20052;-66
2023/09/01 07:40:49;;;;;;;11.50;4.47;;;27.30;80.10;;;;;;5032366;28;20050;-67
2023/09/01 07:43:53;;;;;;;14.20;4.10;;;27.50;79.60;;;;;;5033893;28;20461;-66
2023/09/01 07:46:57;;;;;;;13.95;4.68;;;27.70;79.30;;;;;;5033829;28;20041;-65
2023/09/01 07:50:01;;;;;;;14.98;4.50;;;27.80;79.20;;;;;;5033680;28;20040;-66
2023/09/01 07:53:05;;;;;;;11.32;4.00;;;27.90;78.50;;;;;;5033960;28;20048;-66
2023/09/01 07:56:12;;;;;;;9.13;4.25;;;28.00;78.40;;;;;;5033351;28;20056;-66
2023/09/01 07:59:16;;;;;;;13.82;4.18;;;27.60;79.20;;;;;;5033603;28;20679;-67
2023/09/01 08:02:20;;;;;;;11.27;3.85;;;27.60;79.10;;;;;;5033479;28;20044;-66
2023/09/01 08:05:24;;;;;;;16.48;4.00;;;27.60;80.10;;;;;;5033459;28;20040;-66
2023/09/01 08:08:31;;;;;;;11.18;3.55;;;27.80;79.00;;;;;;5033209;28;20049;-67
2023/09/01 08:11:35;;;;;;;14.30;3.60;;;27.80;79.20;;;;;;5033388;28;20389;-67
2023/09/01 08:14:38;;;;;;;15.27;3.80;;;27.60;78.90;;;;;;5032399;28;20056;-67
2023/09/01 08:17:43;;;;;;;7.70;3.05;;;27.80;79.50;;;;;;5032958;28;20045;-67
2023/09/01 08:20:47;;;;;;;9.68;3.45;;;28.00;79.10;;;;;;5032912;28;20072;-66
2023/09/01 08:23:52;;;;;;;15.00;3.55;;;28.10;78.70;;;;;;5033023;28;20044;-67
2023/09/01 08:26:56;;;;;;;13.57;4.40;;;28.10;78.70;;;;;;5031881;28;20064;-66
2023/09/01 08:30:00;;;;;;;14.25;3.63;;;28.00;79.30;;;;;;5032747;28;20052;-66
2023/09/01 08:33:04;;;;;;;14.93;3.78;;;28.10;79.20;;;;;;5032451;28;20061;-67
2023/09/01 08:36:08;;;;;;;6.85;3.40;;;28.10;78.60;;;;;;5032612;28;20223;-67
2023/09/01 08:39:12;;;;;;;7.38;3.30;;;28.10;78.10;;;;;;5033032;28;20041;-65
2023/09/01 08:42:21;;;;;;;12.48;3.40;;;28.20;78.30;;;;;;5032917;28;20052;-65
2023/09/01 08:45:27;;;;;;;10.23;3.97;;;28.30;77.20;;;;;;5032800;28;20052;-66
2023/09/01 08:48:34;;;;;;;8.73;2.95;;;28.30;76.40;;;;;;5031967;28;20056;-68
2023/09/01 08:51:41;;;;;;;13.80;3.95;;;28.30;76.80;;;;;;5032780;28;20048;-66
2023/09/01 08:54:46;;;;;;;10.85;3.45;;;28.40;76.40;;;;;;5032309;28;20056;-65
2023/09/01 08:57:50;;;;;;;7.28;3.00;;;28.40;75.80;;;;;;5032231;28;20043;-67
2023/09/01 09:00:55;;;;;;;8.55;3.85;;;28.40;76.30;;;;;;5032320;28;20033;-67
2023/09/01 09:04:00;;;;;;;8.50;2.85;;;28.50;76.00;;;;;;5032407;28;20041;-66
2023/09/01 09:07:18;;;;;;;10.70;3.40;;;28.60;75.10;;;;;;5031907;28;20044;-68
2023/09/01 09:10:33;;;;;;;10.20;3.40;;;28.70;75.30;;;;;;5032222;28;20044;-66
2023/09/01 09:13:37;;;;;;;8.70;3.33;;;28.60;74.20;;;;;;5030920;28;20721;-66
2023/09/01 09:16:55;;;;;;;10.65;3.55;;;28.40;74.40;;;;;;5031146;28;20128;-65
2023/09/01 09:20:00;;;;;;;13.48;3.95;;;28.40;72.30;;;;;;5031883;28;20056;-68
2023/09/01 09:23:04;;;;;;;7.90;3.45;;;28.30;71.70;;;;;;5031669;28;20397;-65
2023/09/01 09:26:12;;;;;;;8.75;3.00;;;28.20;73.40;;;;;;5031819;28;20033;-66
2023/09/01 09:29:16;;;;;;;10.27;3.67;;;28.30;73.80;;;;;;5031219;28;20163;-65
2023/09/01 09:32:24;;;;;;;9.68;3.53;;;28.20;73.60;;;;;;5031557;28;20044;-65
2023/09/01 09:35:28;;;;;;;15.50;4.05;;;28.00;74.80;;;;;;5031523;28;20237;-65
2023/09/01 09:38:44;;;;;;;9.38;3.67;;;28.10;75.10;;;;;;5031695;28;20041;-65
2023/09/01 09:41:48;;;;;;;11.90;3.47;;;28.10;74.80;;;;;;5031450;28;20038;-66
2023/09/01 09:44:55;;;;;;;10.43;3.38;;;28.20;74.50;;;;;;5031320;28;20109;-67
2023/09/01 09:48:01;;;;;;;11.82;3.50;;;28.40;74.70;;;;;;5031213;28;20072;-67
2023/09/01 09:51:10;;;;;;;5.53;2.88;;;28.50;74.70;;;;;;5031089;28;20482;-67
2023/09/01 09:54:18;;;;;;;15.05;3.90;;;28.80;73.40;;;;;;5030453;28;20056;-67
2023/09/01 09:57:26;;;;;;;17.48;3.58;;;28.90;73.00;;;;;;5030800;28;20036;-66
2023/09/01 10:00:42;;;;;;;7.55;3.00;;;29.10;72.90;;;;;;5031145;28;20452;-68
2023/09/01 10:03:49;;;;;;;8.35;3.10;;;29.20;72.90;;;;;;5030544;28;20037;-67
2023/09/01 10:06:54;;;;;;;8.27;3.20;;;29.30;72.80;;;;;;5030582;28;20046;-68
2023/09/01 10:09:59;;;;;;;11.93;3.30;;;29.30;71.60;;;;;;5030112;28;20530;-68
2023/09/01 10:13:06;;;;;;;10.00;3.47;;;29.40;70.90;;;;;;5030499;28;20242;-68
2023/09/01 10:16:10;;;;;;;5.90;2.90;;;29.40;70.20;;;;;;5030714;28;20413;-66
2023/09/01 10:19:15;;;;;;;7.38;3.10;;;29.40;70.80;;;;;;5031009;28;20049;-67
2023/09/01 10:22:19;;;;;;;6.82;3.03;;;29.50;70.40;;;;;;5030807;28;20045;-65
2023/09/01 10:25:26;;;;;;;15.05;3.30;;;29.50;69.60;;;;;;5029497;28;20064;-65
2023/09/01 10:28:30;;;;;;;7.97;3.55;;;29.50;69.80;;;;;;5029918;28;20048;-66
2023/09/01 10:31:36;;;;;;;8.93;3.80;;;29.60;70.70;;;;;;5030949;28;20045;-67
2023/09/01 10:34:40;;;;;;;8.70;3.10;;;29.70;70.80;;;;;;5030687;28;20045;-66
2023/09/01 10:38:23;;;;;;;7.47;3.40;;;29.80;70.70;;;;;;5030457;28;20057;-66
2023/09/01 10:42:02;;;;;;;11.30;5.30;;;29.80;69.70;;;;;;5030530;28;20029;-66
2023/09/01 10:45:06;;;;;;;12.13;3.97;;;29.80;69.80;;;;;;5030804;28;20052;-66
2023/09/01 10:48:49;;;;;;;8.93;3.63;;;29.70;67.90;;;;;;5030657;28;20052;-66
2023/09/01 10:52:12;;;;;;;7.88;3.03;;;29.50;68.60;;;;;;5029714;28;20046;-67
2023/09/01 10:55:16;;;;;;;5.75;3.35;;;29.50;69.20;;;;;;5030096;28;20046;-65
2023/09/01 10:58:20;;;;;;;9.88;3.50;;;29.60;70.00;;;;;;5041262;28;20068;-66
2023/09/01 11:01:38;;;;;;;8.27;3.83;;;29.70;70.20;;;;;;5030712;28;20041;-66
2023/09/01 11:04:42;;;;;;;12.15;4.55;;;29.70;69.00;;;;;;5030454;28;20052;-66
2023/09/01 11:08:15;;;;;;;12.18;3.80;;;29.60;69.20;;;;;;5030412;28;20048;-66
2023/09/01 11:11:20;;;;;;;8.90;3.50;;;29.50;69.80;;;;;;5029992;28;20215;-65
2023/09/01 11:14:24;;;;;;;10.70;4.10;;;29.40;69.60;;;;;;5030226;28;20366;-65
2023/09/01 11:17:45;;;;;;;11.60;3.92;;;29.40;69.30;;;;;;5033782;28;20401;-65
2023/09/01 11:21:00;;;;;;;9.32;3.22;;;29.40;69.70;;;;;;5034038;28;20481;-66
2023/09/01 11:24:04;;;;;;;12.00;3.90;;;29.50;70.20;;;;;;5033969;28;20041;-66
2023/09/01 11:27:10;;;;;;;7.13;3.85;;;29.40;69.50;;;;;;5034308;28;20049;-65
2023/09/01 11:30:17;;;;;;;11.07;3.40;;;29.30;69.50;;;;;;5033548;28;20056;-66
2023/09/01 11:33:22;;;;;;;10.52;4.25;;;29.40;69.70;;;;;;5033674;28;20060;-66
2023/09/01 11:36:26;;;;;;;10.35;3.63;;;29.40;69.10;;;;;;5033650;28;20048;-65
2023/09/01 11:39:30;;;;;;;10.20;3.85;;;29.40;69.10;;;;;;5033953;28;20044;-65
2023/09/01 11:42:36;;;;;;;6.90;3.28;;;29.40;68.80;;;;;;5033923;28;20056;-65
2023/09/01 11:45:49;;;;;;;8.20;3.05;;;29.40;68.30;;;;;;5033633;28;20037;-65
2023/09/01 11:48:54;;;;;;;8.65;3.92;;;29.40;68.40;;;;;;5033850;28;20049;-66
2023/09/01 11:51:59;;;;;;;9.75;3.80;;;29.40;66.70;;;;;;5033315;28;20037;-64
2023/09/01 11:55:03;;;;;;;7.63;3.55;;;29.30;66.60;;;;;;5033461;28;20041;-64
2023/09/01 11:58:08;;;;;;;8.80;4.22;;;29.20;66.50;;;;;;5033285;28;20038;-65
2023/09/01 12:01:16;;;;;;;7.88;3.80;;;29.10;67.40;;;;;;5033385;28;20038;-65
2023/09/01 12:04:20;;;;;;;7.85;4.00;;;29.10;69.40;;;;;;5033455;28;20048;-65
2023/09/01 12:07:29;;;;;;;27.35;5.25;;;29.20;72.10;;;;;;5033141;28;20037;-65
2023/09/01 12:10:33;;;;;;;18.30;5.78;;;29.30;72.40;;;;;;5033297;28;20493;-65
2023/09/01 12:13:37;;;;;;;11.35;4.43;;;29.30;73.70;;;;;;5033042;28;20048;-65
2023/09/01 12:16:41;;;;;;;9.85;3.83;;;29.40;74.60;;;;;;5032953;28;20057;-66
2023/09/01 12:19:48;;;;;;;6.70;3.70;;;29.40;74.10;;;;;;5033324;28;20108;-66
2023/09/01 12:22:52;;;;;;;10.45;4.00;;;29.40;74.80;;;;;;5033346;28;20056;-68
2023/09/01 12:25:57;;;;;;;10.70;4.00;;;29.40;74.20;;;;;;5032747;28;20052;-68
2023/09/01 12:29:01;;;;;;;11.27;4.25;;;29.40;73.70;;;;;;5032447;28;20053;-69
2023/09/01 12:32:05;;;;;;;10.35;4.28;;;29.40;73.90;;;;;;5033061;28;20052;-69
2023/09/01 12:35:09;;;;;;;11.90;4.15;;;29.40;74.80;;;;;;5032799;28;20061;-68
2023/09/01 12:38:13;;;;;;;8.25;4.10;;;29.40;75.00;;;;;;5033066;28;20052;-67
2023/09/01 12:41:16;;;;;;;8.50;3.88;;;29.40;74.70;;;;;;5032672;28;20401;-66
2023/09/01 12:44:20;;;;;;;17.02;5.20;;;29.40;75.00;;;;;;5032213;28;20397;-65
2023/09/01 12:47:24;;;;;;;10.38;4.65;;;29.40;74.30;;;;;;5031045;28;20048;-65
2023/09/01 12:50:28;;;;;;;13.82;4.70;;;29.30;75.00;;;;;;5032802;28;20044;-65
2023/09/01 12:53:33;;;;;;;15.68;4.65;;;29.30;75.20;;;;;;5032694;28;20401;-65
2023/09/01 12:56:37;;;;;;;7.70;4.07;;;29.20;75.70;;;;;;5032167;28;20088;-65
2023/09/01 12:59:41;;;;;;;11.10;4.45;;;29.20;76.10;;;;;;5032421;28;20041;-66
2023/09/01 13:02:45;;;;;;;42.65;5.90;;;29.20;76.30;;;;;;5031073;28;20073;-67
2023/09/01 13:05:49;;;;;;;16.88;4.45;;;29.20;76.40;;;;;;5029931;28;20052;-67
2023/09/01 13:08:53;;;;;;;10.80;4.10;;;29.20;76.90;;;;;;5030792;28;20044;-66
2023/09/01 13:11:56;;;;;;;22.25;5.45;;;29.20;77.00;;;;;;5030621;28;20638;-66
2023/09/01 13:15:00;;;;;;;14.23;4.60;;;29.10;77.00;;;;;;5030670;28;20052;-66
2023/09/01 13:18:04;;;;;;;8.90;4.15;;;29.10;77.80;;;;;;5030021;28;20044;-67
2023/09/01 13:21:08;;;;;;;12.48;4.43;;;29.10;78.20;;;;;;5030250;28;20033;-66
2023/09/01 13:24:12;;;;;;;14.82;4.90;;;29.10;78.10;;;;;;5029179;28;20050;-67
2023/09/01 13:27:16;;;;;;;14.77;4.97;;;29.00;78.10;;;;;;5029695;28;20053;-67
2023/09/01 13:30:20;;;;;;;11.10;4.30;;;29.00;78.30;;;;;;5031158;28;20040;-68
2023/09/01 13:33:24;;;;;;;13.20;4.03;;;29.00;78.70;;;;;;5031290;28;20078;-67
2023/09/01 13:36:28;;;;;;;24.23;4.68;;;29.00;78.80;;;;;;5031379;28;20052;-69
2023/09/01 13:39:32;;;;;;;11.55;4.65;;;29.00;78.60;;;;;;5031195;28;20060;-67
2023/09/01 13:42:36;;;;;;;16.33;5.03;;;29.00;78.70;;;;;;5031581;28;20048;-68
2023/09/01 13:45:40;;;;;;;14.50;4.78;;;28.90;78.90;;;;;;5031643;28;20492;-71
2023/09/01 13:48:44;;;;;;;15.50;4.60;;;28.90;79.10;;;;;;5031384;28;20051;-67
2023/09/01 13:51:48;;;;;;;15.77;4.93;;;28.90;79.40;;;;;;5031282;28;20520;-68
2023/09/01 13:54:52;;;;;;;18.75;5.03;;;28.90;79.60;;;;;;5031498;28;20075;-66
2023/09/01 13:57:57;;;;;;;19.67;4.68;;;28.80;80.20;;;;;;5031256;28;20053;-67
2023/09/01 14:01:01;;;;;;;11.27;4.38;;;28.80;80.10;;;;;;5031038;28;20052;-67
2023/09/01 14:04:05;;;;;;;9.23;4.40;;;28.80;80.20;;;;;;5030934;28;20052;-66
2023/09/01 14:07:09;;;;;;;17.70;4.95;;;28.80;81.00;;;;;;5030747;28;20369;-66
2023/09/01 14:10:13;;;;;;;13.05;4.38;;;28.80;81.40;;;;;;5030664;28;20056;-66
2023/09/01 14:13:18;;;;;;;20.23;4.80;;;28.70;81.40;;;;;;5031053;28;20052;-68
2023/09/01 14:16:22;;;;;;;15.60;4.97;;;28.70;81.30;;;;;;5030630;28;20171;-68
2023/09/01 14:19:26;;;;;;;18.00;4.72;;;28.60;81.60;;;;;;5031062;28;20056;-67
2023/09/01 14:22:30;;;;;;;11.13;3.92;;;28.60;81.10;;;;;;5029780;28;20048;-67
2023/09/01 14:25:42;;;;;;;12.70;4.50;;;28.60;81.20;;;;;;5030499;28;20401;-68
2023/09/01 14:28:48;;;;;;;15.20;4.60;;;28.50;80.90;;;;;;5030569;28;20105;-66
2023/09/01 14:31:52;;;;;;;18.90;4.72;;;28.50;80.90;;;;;;5030304;28;20040;-67
2023/09/01 14:34:56;;;;;;;11.15;4.60;;;28.40;80.70;;;;;;5030208;28;20056;-66
2023/09/01 14:38:01;;;;;;;37.05;5.97;;;28.40;81.00;;;;;;5030203;28;20048;-67
2023/09/01 14:41:05;;;;;;;17.17;5.32;;;28.40;80.90;;;;;;5030612;28;20413;-68
2023/09/01 14:44:09;;;;;;;12.77;4.85;;;28.30;81.00;;;;;;5030483;28;20056;-67
2023/09/01 14:47:13;;;;;;;12.80;4.70;;;28.30;80.80;;;;;;5018480;28;20044;-66
2023/09/01 14:50:19;;;;;;;15.40;5.03;;;28.30;80.90;;;;;;5033445;28;20052;-66
2023/09/01 14:53:24;;;;;;;15.90;4.43;;;28.30;80.50;;;;;;5034716;28;20053;-66
2023/09/01 14:56:31;;;;;;;11.77;5.00;;;28.30;80.40;;;;;;5034312;28;20060;-66
2023/09/01 14:59:35;;;;;;;21.15;4.85;;;28.20;80.70;;;;;;5034521;28;20420;-67
2023/09/01 15:02:39;;;;;;;9.85;4.00;;;28.20;80.80;;;;;;5034402;28;20271;-66
2023/09/01 15:05:49;;;;;;;10.13;4.00;;;28.20;80.80;;;;;;5034396;28;20046;-66
2023/09/01 15:08:54;;;;;;;17.25;4.40;;;28.20;80.80;;;;;;5034246;28;20044;-66
2023/09/01 15:11:58;;;;;;;10.32;4.70;;;28.10;80.70;;;;;;5034294;28;20044;-67
2023/09/01 15:15:03;;;;;;;15.52;5.22;;;28.10;80.90;;;;;;5034205;28;20099;-67
2023/09/01 15:18:07;;;;;;;16.65;4.25;;;28.10;81.10;;;;;;5034174;28;20057;-67
2023/09/01 15:21:13;;;;;;;10.48;4.20;;;28.10;81.50;;;;;;5034177;28;20052;-66
2023/09/01 15:24:16;;;;;;;15.27;4.25;;;28.10;81.70;;;;;;5034579;28;20052;-67
2023/09/01 15:27:20;;;;;;;22.52;4.95;;;28.30;82.00;;;;;;5034080;28;20480;-67
2023/09/01 15:30:24;;;;;;;13.05;5.20;;;29.20;80.40;;;;;;5034082;28;20048;-66
2023/09/01 15:33:28;;;;;;;18.27;4.30;;;30.30;77.70;;;;;;5033878;28;20409;-66
2023/09/01 15:36:32;;;;;;;10.75;4.60;;;30.50;76.70;;;;;;5033862;28;20048;-66
2023/09/01 15:39:36;;;;;;;16.17;5.07;;;31.00;76.10;;;;;;5034339;28;20041;-66
2023/09/01 15:42:41;;;;;;;13.13;4.15;;;31.40;74.70;;;;;;5034219;28;20056;-67
2023/09/01 15:45:46;;;;;;;23.23;5.07;;;31.00;74.90;;;;;;5033586;28;20068;-67
2023/09/01 15:48:50;;;;;;;16.30;4.50;;;30.30;76.00;;;;;;5034062;28;20044;-67
2023/09/01 15:51:54;;;;;;;14.23;4.22;;;30.30;77.10;;;;;;5034023;28;20497;-65
2023/09/01 15:54:58;;;;;;;15.60;4.63;;;31.00;75.40;;;;;;5033323;28;20041;-66